Latest Weather Observations for Adele Island

IDW60801

Issued at 9:43 pm WST Friday 23 April 2021 (issued every 10 minutes, with the page automatically refreshed every 10 minutes)

About weather observations | Map of weather stations | Latest weather observations for WA | Other Formats
Station Details ID: 200735 Name: ADELE ISLAND Lat: -15.51 Lon: 123.16 Height: 4.6 m
Data from the previous 72 hours. | See also: Recent months at Adele Island
Date/Time
WST
Temp
°C
App
Temp
°C
Dew
Point
°C
Rel
Hum
%
Delta-T
°C
Wind Press
QNH
hPa
Press
MSL
hPa
Rain since
9am
mm
Dir  Spd
km/h
Gust
km/h
Spd
kts
Gust
kts
23/09:30pm 28.3 - - - - CALM 0 2 0 1 1013.1 1013.0 -
23/09:17pm 29.1 - - - - CALM 0 - 0 - - 1012.7 -
23/09:00pm 29.2 - - - - CALM 0 2 0 1 1012.8 1012.7 -
23/08:30pm 28.7 - - - - CALM 0 9 0 5 1012.8 1012.7 -
23/08:17pm 28.7 - - - - CALM 0 - 0 - - 1012.6 -
23/08:00pm 28.8 - - - - CALM 0 2 0 1 1012.6 1012.5 -
23/07:30pm 28.9 - - - - CALM 0 0 0 0 1012.2 1012.1 -
23/07:17pm 28.9 - - - - CALM 0 - 0 - - 1012.0 -
23/07:00pm 29.1 - - - - CALM 0 4 0 2 1011.8 1011.7 -
23/06:30pm 29.3 - - - - CALM 0 2 0 1 1011.4 1011.3 -
23/06:17pm 29.3 - - - - CALM 0 - 0 - - 1011.1 -
23/06:00pm 29.3 - - - - CALM 0 7 0 4 1011.0 1010.9 -
23/05:30pm 29.7 - - - - CALM 0 0 0 0 1010.9 1010.8 -
23/05:18pm 30.6 - - - - CALM 0 - 0 - - 1010.7 -
23/05:00pm 30.7 - - - - CALM 0 0 0 0 1010.7 1010.6 -
23/04:30pm 30.5 - - - - N 6 9 3 5 1010.5 1010.4 -
23/04:17pm 30.3 - - - - N 6 - 3 - - 1010.3 -
23/04:00pm 30.6 - - - - N 7 9 4 5 1010.3 1010.2 -
23/03:30pm 30.3 - - - - NNE 9 13 5 7 1009.9 1009.8 -
23/03:17pm 30.5 - - - - NNE 11 - 6 - - 1009.8 -
23/03:00pm 30.8 - - - - NE 11 15 6 8 1009.9 1009.8 -
23/02:30pm 30.7 - - - - NE 15 19 8 10 1010.0 1009.9 -
23/02:17pm 31.1 - - - - NE 15 - 8 - - 1009.9 -
23/02:00pm 30.8 - - - - NE 17 20 9 11 1010.2 1010.1 -
23/01:30pm 30.9 - - - - NE 17 19 9 10 1010.2 1010.1 -
23/01:17pm 30.6 - - - - NE 17 - 9 - - 1010.2 -
23/01:00pm 31.4 - - - - ENE 20 24 11 13 1010.5 1010.4 -
23/12:30pm 31.0 - - - - ENE 22 26 12 14 1010.8 1010.7 -
23/12:17pm 31.1 - - - - ENE 20 - 11 - - 1010.8 -
23/12:00pm 31.3 - - - - ENE 20 24 11 13 1011.1 1011.0 -
23/11:30am 31.2 - - - - E 19 24 10 13 1011.4 1011.3 -
23/11:17am 30.9 - - - - ESE 19 - 10 - - 1011.4 -
23/11:00am 31.1 - - - - ESE 19 26 10 14 1011.8 1011.7 -
23/10:30am 31.1 - - - - ESE 15 20 8 11 1012.2 1012.1 -
23/10:17am 31.3 - - - - E 13 - 7 - - 1012.2 -
23/10:00am 31.7 - - - - ESE 11 15 6 8 1012.4 1012.3 -
23/09:30am 31.2 - - - - ENE 11 13 6 7 1012.4 1012.3 -
23/09:17am 31.3 - - - - ENE 11 - 6 - - 1012.2 -
23/09:00am 31.4 - - - - E 11 13 6 7 1012.2 1012.1 -
23/08:30am 30.9 - - - - E 11 13 6 7 1012.0 1011.9 -
23/08:17am 30.7 - - - - E 11 - 6 - - 1011.9 -
23/08:00am 30.4 - - - - E 9 11 5 6 1011.9 1011.8 -
23/07:30am 29.6 - - - - E 11 15 6 8 1011.7 1011.6 -
23/07:17am 28.7 - - - - E 9 - 5 - - 1011.7 -
23/07:00am 28.7 - - - - SE 11 13 6 7 1011.5 1011.4 -
23/06:30am 28.0 - - - - SE 13 15 7 8 1011.4 1011.3 -
23/06:17am 28.5 - - - - ESE 15 - 8 - - 1011.1 -
23/06:00am 28.0 - - - - ESE 15 17 8 9 1011.0 1010.9 -
23/05:30am 28.0 - - - - SE 17 17 9 9 1010.6 1010.5 -
23/05:17am 26.8 - - - - ESE 15 - 8 - - 1010.4 -
23/05:00am 28.2 - - - - SE 15 19 8 10 1010.2 1010.1 -
23/04:30am 28.3 - - - - SSE 19 20 10 11 1010.0 1009.9 -
23/04:17am 28.1 - - - - SSE 19 - 10 - - 1009.8 -
23/04:00am 27.0 - - - - SE 17 19 9 10 1009.9 1009.8 -
23/03:30am 27.4 - - - - SE 15 15 8 8 1010.1 1010.0 -
23/03:17am 28.0 - - - - SSE 15 - 8 - - 1010.0 -
23/03:00am 28.1 - - - - SE 15 17 8 9 1010.2 1010.1 -
23/02:30am 28.5 - - - - SE 15 15 8 8 1010.4 1010.3 -
23/02:17am 29.0 - - - - SE 15 - 8 - - 1010.4 -
23/02:00am 29.4 - - - - SE 15 17 8 9 1010.5 1010.4 -
23/01:30am 29.7 - - - - ESE 15 17 8 9 1010.7 1010.6 -
23/01:17am 30.1 - - - - SE 19 - 10 - - 1010.7 -
23/01:00am 29.6 - - - - SE 15 17 8 9 1011.0 1010.9 -
23/12:30am 28.7 - - - - SE 15 15 8 8 1011.3 1011.2 -
23/12:17am 29.1 - - - - SE 13 - 7 - - 1011.4 -
23/12:00am 29.3 - - - - SE 15 17 8 9 1011.8 1011.7 -
 
Date/Time
WST
Temp
°C
App
Temp
°C
Dew
Point
°C
Rel
Hum
%
Delta-T
°C
Wind Press
QNH
hPa
Press
MSL
hPa
Rain since
9am
mm
Dir  Spd
km/h
Gust
km/h
Spd
kts
Gust
kts
22/11:30pm 29.5 - - - - ESE 9 11 5 6 1011.9 1011.8 -
22/11:17pm 29.8 - - - - ESE 11 - 6 - - 1011.9 -
22/11:00pm 29.9 - - - - SE 13 15 7 8 1012.2 1012.1 -
22/10:30pm 28.8 - - - - SE 15 17 8 9 1012.3 1012.2 -
22/10:17pm 29.3 - - - - SE 13 - 7 - - 1012.2 -
22/10:00pm 29.4 - - - - SE 13 15 7 8 1012.3 1012.2 -
22/09:30pm 28.9 - - - - SE 11 13 6 7 1012.4 1012.3 -
22/09:17pm 29.5 - - - - ESE 11 - 6 - - 1012.3 -
22/09:00pm 29.0 - - - - SE 11 13 6 7 1012.4 1012.3 -
22/08:30pm 28.8 - - - - SE 13 13 7 7 1012.3 1012.2 -
22/08:17pm 29.1 - - - - SE 11 - 6 - - 1012.1 -
22/08:00pm 28.8 - - - - SE 11 13 6 7 1012.0 1011.9 -
22/07:30pm 29.1 - - - - SE 11 13 6 7 1011.7 1011.6 -
22/07:17pm 28.8 - - - - SE 11 - 6 - - 1011.4 -
22/07:00pm 29.3 - - - - SE 11 13 6 7 1011.3 1011.2 -
22/06:30pm 28.7 - - - - SE 11 13 6 7 1011.0 1010.9 -
22/06:17pm 28.6 - - - - SE 11 - 6 - - 1010.7 -
22/06:00pm 28.4 - - - - ESE 9 11 5 6 1010.6 1010.5 -
22/05:30pm 29.0 - - - - E 9 9 5 5 1010.3 1010.2 -
22/05:17pm 29.3 - - - - E 9 - 5 - - 1010.1 -
22/05:00pm 29.8 - - - - ESE 11 15 6 8 1010.1 1010.0 -
22/04:30pm 30.1 - - - - SE 15 17 8 9 1009.7 1009.6 -
22/04:17pm 30.3 - - - - SE 15 - 8 - - 1009.5 -
22/04:00pm 30.3 - - - - E 13 19 7 10 1009.4 1009.3 -
22/03:30pm 30.4 - - - - SE 13 19 7 10 1009.3 1009.2 -
22/03:17pm 30.8 - - - - ESE 15 - 8 - - 1009.2 -
22/03:00pm 31.4 - - - - E 13 17 7 9 1009.3 1009.2 -
22/02:30pm 31.4 - - - - E 15 17 8 9 1009.4 1009.3 -
22/02:17pm 31.2 - - - - E 17 - 9 - - 1009.5 -
22/02:00pm 31.4 - - - - ENE 19 22 10 12 1009.8 1009.7 -
22/01:30pm 31.4 - - - - ENE 19 22 10 12 1009.9 1009.8 -
22/01:17pm 31.3 - - - - E 2 - 1 - - 1009.9 -
22/01:00pm 30.5 - - - - E 20 26 11 14 1010.2 1010.1 -
22/12:30pm 30.6 - - - - E 20 26 11 14 1010.5 1010.4 -
22/12:17pm 30.9 - - - - E 22 - 12 - - 1010.4 -
22/12:00pm 30.1 - - - - E 24 28 13 15 1010.7 1010.6 -
22/11:30am 30.8 - - - - E 24 30 13 16 1011.0 1010.9 -
22/11:17am 31.0 - - - - E 24 - 13 - - 1011.1 -
22/11:00am 31.0 - - - - ESE 19 28 10 15 1011.3 1011.2 -
22/10:30am 30.9 - - - - ESE 22 30 12 16 1011.8 1011.7 -
22/10:17am 31.2 - - - - ESE 22 - 12 - - 1011.9 -
22/10:00am 30.8 - - - - ESE 24 30 13 16 1012.1 1012.0 -
22/09:30am 30.2 - - - - SE 22 28 12 15 1012.3 1012.2 -
22/09:17am 30.2 - - - - SE 20 - 11 - - 1012.3 -
22/09:00am 30.1 - - - - SE 20 28 11 15 1012.4 1012.3 -
22/08:30am 29.5 - - - - SE 22 30 12 16 1012.3 1012.2 -
22/08:17am 29.5 - - - - ESE 20 - 11 - - 1012.1 -
22/08:00am 29.6 - - - - SE 20 24 11 13 1012.2 1012.1 -
22/07:30am 29.4 - - - - SE 20 28 11 15 1012.1 1012.0 -
22/07:17am 28.9 - - - - SSE 20 - 11 - - 1012.0 -
22/07:00am 28.2 - - - - SSE 20 24 11 13 1012.1 1012.0 -
22/06:30am 28.4 - - - - SE 20 24 11 13 1011.9 1011.8 -
22/06:17am 28.1 - - - - SE 20 - 11 - - 1011.6 -
22/06:00am 27.6 - - - - SSE 20 24 11 13 1011.6 1011.5 -
22/05:30am 27.2 - - - - SE 17 22 9 12 1011.2 1011.1 -
22/05:17am 27.1 - - - - SE 17 - 9 - - 1011.0 -
22/05:00am 27.2 - - - - SE 17 24 9 13 1011.0 1010.9 -
22/04:30am 27.3 - - - - SE 17 20 9 11 1010.9 1010.8 -
22/04:17am 27.2 - - - - SE 19 - 10 - - 1010.8 -
22/04:00am 27.0 - - - - SE 15 17 8 9 1010.8 1010.7 -
22/03:30am 27.9 - - - - SSE 19 20 10 11 1010.8 1010.7 -
22/03:17am 28.4 - - - - SSE 15 - 8 - - 1010.7 -
22/03:00am 28.3 - - - - SE 13 17 7 9 1010.9 1010.8 -
22/02:30am 29.0 - - - - SE 15 17 8 9 1010.9 1010.8 -
22/02:17am 28.9 - - - - SE 15 - 8 - - 1010.9 -
22/02:00am 28.8 - - - - SSE 13 17 7 9 1011.1 1011.0 -
22/01:30am 28.5 - - - - SSE 15 17 8 9 1011.2 1011.1 -
22/01:17am 28.7 - - - - SSE 13 - 7 - - 1011.2 -
22/01:00am 28.7 - - - - SSE 13 15 7 8 1011.4 1011.3 -
22/12:30am 29.0 - - - - SSE 13 15 7 8 1011.7 1011.6 -
22/12:17am 28.5 - - - - SSE 13 - 7 - - 1011.8 -
22/12:00am 28.9 - - - - SSE 13 13 7 7 1012.1 1012.0 -
 
Date/Time
WST
Temp
°C
App
Temp
°C
Dew
Point
°C
Rel
Hum
%
Delta-T
°C
Wind Press
QNH
hPa
Press
MSL
hPa
Rain since
9am
mm
Dir  Spd
km/h
Gust
km/h
Spd
kts
Gust
kts
21/11:30pm 28.6 - - - - SE 13 15 7 8 1012.2 1012.1 -
21/11:17pm 28.7 - - - - SSE 15 - 8 - - 1012.3 -
21/11:00pm 28.6 - - - - SSE 15 17 8 9 1012.4 1012.3 -
21/10:30pm 29.1 - - - - SSE 19 24 10 13 1012.5 1012.4 -
21/10:17pm 29.2 - - - - SSE 20 - 11 - - 1012.3 -
21/10:00pm 29.3 - - - - SSE 22 26 12 14 1012.4 1012.3 -
21/09:30pm 28.7 - - - - SSE 17 22 9 12 1012.7 1012.6 -
21/09:17pm 28.3 - - - - SE 11 - 6 - - 1012.7 -
21/09:00pm 28.7 - - - - SE 13 15 7 8 1012.9 1012.8 -
21/08:30pm 28.2 - - - - SSE 15 19 8 10 1012.8 1012.7 -
21/08:17pm 29.5 - - - - S 17 - 9 - - 1012.5 -
21/08:00pm 29.3 - - - - S 15 17 8 9 1012.5 1012.4 -
21/07:30pm 29.1 - - - - S 15 17 8 9 1012.2 1012.1 -
21/07:17pm 28.8 - - - - S 17 - 9 - - 1012.0 -
21/07:00pm 28.9 - - - - S 17 20 9 11 1011.9 1011.8 -
21/06:30pm 29.3 - - - - S 15 17 8 9 1011.8 1011.7 -
21/06:17pm 29.2 - - - - S 15 - 8 - - 1011.6 -
21/06:00pm 29.7 - - - - S 15 17 8 9 1011.5 1011.4 -
21/05:30pm 29.8 - - - - SW 13 15 7 8 1011.3 1011.2 -
21/05:17pm 30.0 - - - - W 11 - 6 - - 1011.1 -
21/05:00pm 29.7 - - - - WNW 9 11 5 6 1011.1 1011.0 -
21/04:30pm 30.3 - - - - SSW 11 13 6 7 1011.0 1010.9 -
21/04:17pm 30.3 - - - - SSW 13 - 7 - - 1010.7 -
21/04:00pm 30.2 - - - - SW 13 17 7 9 1010.8 1010.7 -
21/03:30pm 30.4 - - - - SW 13 15 7 8 1010.7 1010.6 -
21/03:17pm 30.8 - - - - W 9 - 5 - - 1010.5 -
21/03:00pm 30.9 - - - - SW 13 17 7 9 1010.7 1010.6 -
21/02:30pm 31.5 - - - - S 11 15 6 8 1010.9 1010.8 -
21/02:17pm 31.2 - - - - S 6 - 3 - - 1010.9 -
21/02:00pm 31.0 - - - - S 15 20 8 11 1011.1 1011.0 -
21/01:30pm 31.3 - - - - E 13 20 7 11 1011.3 1011.2 -
21/01:17pm 31.6 - - - - E 13 - 7 - - 1011.4 -
21/01:00pm 31.4 - - - - E 13 19 7 10 1011.7 1011.6 -
21/12:30pm 31.5 - - - - E 13 17 7 9 1012.1 1012.0 -
21/12:17pm 31.6 - - - - E 13 - 7 - - 1012.1 -
21/12:00pm 31.3 - - - - ENE 15 19 8 10 1012.4 1012.3 -
21/11:30am 31.4 - - - - E 15 20 8 11 1012.7 1012.6 -
21/11:17am 30.5 - - - - ESE 17 - 9 - - 1012.9 -
21/11:00am 30.8 - - - - ESE 17 22 9 12 1013.2 1013.1 -
21/10:30am 30.9 - - - - ESE 19 22 10 12 1013.6 1013.5 -
21/10:17am 31.0 - - - - ESE 19 - 10 - - 1013.6 -
21/10:00am 30.4 - - - - ESE 17 20 9 11 1013.8 1013.7 -
21/09:30am 30.0 - - - - E 15 17 8 9 1013.8 1013.7 -
21/09:17am 30.1 - - - - E 15 - 8 - - 1013.7 -
21/09:00am 29.5 - - - - ESE 17 20 9 11 1013.6 1013.5 -
21/08:30am 29.6 - - - - SE 17 20 9 11 1013.6 1013.5 -
21/08:17am 29.5 - - - - SSE 11 - 6 - - 1013.3 -
21/08:00am 29.3 - - - - SSE 9 19 5 10 1013.3 1013.2 -
21/07:30am 28.5 - - - - SSE 13 15 7 8 1013.2 1013.1 -
21/07:17am 28.3 - - - - SE 15 - 8 - - 1013.0 -
21/07:00am 27.6 - - - - SSE 7 17 4 9 1012.9 1012.8 -
21/06:30am 27.4 - - - - SSE 17 20 9 11 1012.8 1012.7 -
21/06:17am 27.3 - - - - S 19 - 10 - - 1012.5 -
21/06:00am 27.3 - - - - SSE 19 20 10 11 1012.4 1012.3 -
21/05:30am 27.5 - - - - SSE 15 17 8 9 1012.1 1012.0 -
21/05:17am 27.8 - - - - S 15 - 8 - - 1011.9 -
21/05:00am 27.2 - - - - S 17 19 9 10 1011.9 1011.8 -
21/04:30am 27.3 - - - - S 15 19 8 10 1011.5 1011.4 -
21/04:17am 27.4 - - - - S 15 - 8 - - 1011.3 -
21/04:00am 27.3 - - - - S 15 19 8 10 1011.3 1011.2 -
21/03:30am 27.3 - - - - SSW 17 20 9 11 1011.3 1011.2 -
21/03:17am 27.5 - - - - SSW 17 - 9 - - 1011.2 -
21/03:00am 27.7 - - - - SSW 15 17 8 9 1011.1 1011.0 -
21/02:30am 27.9 - - - - SSW 13 15 7 8 1011.1 1011.0 -
21/02:17am 28.6 - - - - SSW 13 - 7 - - 1011.0 -
21/02:00am 28.3 - - - - NE 9 13 5 7 1011.2 1011.1 -
21/01:30am 27.8 - - - - CALM 0 4 0 2 1011.3 1011.2 -
21/01:17am 27.8 - - - - CALM 0 - 0 - - 1011.2 -
21/01:00am 27.5 - - - - CALM 0 0 0 0 1011.5 1011.4 -
21/12:30am 27.4 - - - - CALM 0 6 0 3 1011.8 1011.7 -
21/12:17am 27.5 - - - - CALM 0 - 0 - - 1011.8 -
21/12:00am 27.4 - - - - CALM 0 0 0 0 1012.2 1012.1 -
 
Date/Time
WST
Temp
°C
App
Temp
°C
Dew
Point
°C
Rel
Hum
%
Delta-T
°C
Wind Press
QNH
hPa
Press
MSL
hPa
Rain since
9am
mm
Dir  Spd
km/h
Gust
km/h
Spd
kts
Gust
kts
20/11:30pm 28.0 - - - - CALM 0 0 0 0 1012.5 1012.4 -
20/11:17pm 27.9 - - - - CALM 0 - 0 - - 1012.4 -
20/11:00pm 28.1 - - - - CALM 0 0 0 0 1012.6 1012.5 -
20/10:30pm 27.6 - - - - CALM 0 0 0 0 1012.8 1012.7 -
20/10:17pm 27.7 - - - - CALM 0 - 0 - - 1012.6 -
20/10:00pm 28.1 - - - - CALM 0 0 0 0 1012.7 1012.6 -

Other formats

Comma delimited format used in spreadsheet applications
http://www.bom.gov.au/fwo/IDW60801/IDW60801.94210.axf

JavaScript Object Notation format (JSON) in row-major order
http://www.bom.gov.au/fwo/IDW60801/IDW60801.94210.json

Data quality

Most of these data are generated automatically and are frequently updated. Quality checks on data are not normally performed. It is possible for incorrect values to appear. Refer to information at About Latest Weather Observations and please check the disclaimer before using these data.